createdAt,value
2022-10-31T00:01:26.816Z,994.13
2022-10-31T00:06:30.995Z,994.15
2022-10-31T00:11:35.134Z,994.17
2022-10-31T00:16:39.315Z,994.14
2022-10-31T00:21:43.485Z,994.20
2022-10-31T00:26:47.608Z,994.22
2022-10-31T00:31:51.818Z,994.29
2022-10-31T00:36:55.957Z,994.29
2022-10-31T00:42:00.113Z,994.30
2022-10-31T00:47:04.292Z,994.37
2022-10-31T00:52:08.423Z,994.53
2022-10-31T00:57:12.621Z,994.44
2022-10-31T01:02:16.973Z,994.51
2022-10-31T01:07:20.902Z,994.75
2022-10-31T01:12:25.064Z,994.70
2022-10-31T01:17:29.287Z,994.68
2022-10-31T01:22:33.378Z,994.52
2022-10-31T01:27:37.538Z,994.36
2022-10-31T01:32:41.703Z,994.43
2022-10-31T01:37:45.925Z,994.41
2022-10-31T01:42:50.045Z,994.33
2022-10-31T01:47:54.223Z,994.47
2022-10-31T01:52:58.396Z,994.35
2022-10-31T01:58:02.943Z,994.18
2022-10-31T02:03:06.687Z,994.21
2022-10-31T02:08:10.841Z,994.21
2022-10-31T02:13:15.382Z,994.23
2022-10-31T02:18:19.153Z,994.04
2022-10-31T02:23:23.342Z,994.13
2022-10-31T02:28:27.474Z,994.16
2022-10-31T02:33:31.657Z,994.13
2022-10-31T02:38:35.825Z,994.02
2022-10-31T02:43:39.954Z,993.88
2022-10-31T02:48:44.132Z,993.72
2022-10-31T02:53:48.267Z,993.68
2022-10-31T02:58:52.491Z,993.66
2022-10-31T03:03:56.591Z,993.55
2022-10-31T03:09:00.775Z,993.51
2022-10-31T03:14:04.919Z,992.54
2022-10-31T03:19:09.106Z,992.52
2022-10-31T03:24:13.247Z,992.41
2022-10-31T03:29:17.397Z,992.25
2022-10-31T03:34:21.543Z,992.10
2022-10-31T03:39:25.784Z,991.96
2022-10-31T03:44:29.922Z,991.75
2022-10-31T03:49:34.105Z,991.67
2022-10-31T03:54:38.201Z,991.64
2022-10-31T03:59:42.398Z,991.53
2022-10-31T04:04:46.552Z,991.49
2022-10-31T04:09:50.688Z,991.50
2022-10-31T04:14:54.871Z,991.48
2022-10-31T04:19:59.047Z,991.51
2022-10-31T04:25:03.459Z,991.49
2022-10-31T04:30:07.331Z,991.53
2022-10-31T04:35:11.482Z,991.55
2022-10-31T04:40:15.705Z,991.51
2022-10-31T04:45:21.300Z,991.67
2022-10-31T04:50:23.996Z,991.51
2022-10-31T04:55:28.165Z,991.38
2022-10-31T05:00:30.424Z,991.30
2022-10-31T05:05:34.557Z,991.27
2022-10-31T05:10:38.755Z,991.12
2022-10-31T05:15:42.897Z,990.92
2022-10-31T05:20:47.080Z,991.06
2022-10-31T05:25:51.194Z,990.94
2022-10-31T05:30:55.469Z,990.89
2022-10-31T05:35:59.553Z,990.73
2022-10-31T05:41:03.753Z,990.72
2022-10-31T05:46:07.887Z,990.77
2022-10-31T05:51:12.037Z,990.72
2022-10-31T05:56:16.163Z,990.66
2022-10-31T06:01:20.415Z,990.70
2022-10-31T06:06:24.517Z,990.72
2022-10-31T06:11:28.658Z,990.63
2022-10-31T06:16:32.805Z,990.53
2022-10-31T06:21:37.000Z,990.48
2022-10-31T06:26:41.135Z,990.56
2022-10-31T06:31:45.306Z,990.54
2022-10-31T06:36:49.509Z,990.59
2022-10-31T06:41:53.655Z,990.59
2022-10-31T06:46:57.797Z,990.60
2022-10-31T06:52:01.935Z,990.60
2022-10-31T06:57:06.114Z,990.59
2022-10-31T07:02:10.464Z,990.68
2022-10-31T07:07:14.438Z,990.61
2022-10-31T07:12:18.581Z,990.67
2022-10-31T07:17:26.045Z,990.67
2022-10-31T07:22:26.954Z,990.60
2022-10-31T07:27:31.103Z,990.54
2022-10-31T07:32:35.248Z,990.52
2022-10-31T07:37:39.408Z,990.41
2022-10-31T07:42:43.838Z,990.47
2022-10-31T07:47:47.702Z,990.59
2022-10-31T07:52:51.895Z,990.49
2022-10-31T07:57:56.055Z,990.52
2022-10-31T08:03:00.611Z,990.39
2022-10-31T08:08:04.578Z,990.42
2022-10-31T08:13:08.523Z,990.48
2022-10-31T08:18:12.713Z,990.46
2022-10-31T08:23:16.868Z,990.48
2022-10-31T08:28:20.985Z,990.44
2022-10-31T08:33:25.163Z,990.37
2022-10-31T08:38:29.306Z,990.35
2022-10-31T08:43:33.513Z,990.31
2022-10-31T08:48:37.691Z,990.23
2022-10-31T08:53:41.803Z,990.14
2022-10-31T08:58:46.244Z,990.18
2022-10-31T09:03:50.182Z,990.17
2022-10-31T09:08:54.315Z,990.28
2022-10-31T09:13:58.447Z,990.39
2022-10-31T09:19:05.205Z,990.50
2022-10-31T09:24:06.828Z,990.60
2022-10-31T09:29:10.931Z,990.86
2022-10-31T09:34:15.092Z,991.08
2022-10-31T09:39:19.320Z,991.39
2022-10-31T09:44:23.439Z,991.88
2022-10-31T09:49:27.703Z,992.29
2022-10-31T09:54:31.740Z,992.66
2022-10-31T09:59:35.916Z,992.93
2022-10-31T10:04:40.101Z,993.24
2022-10-31T10:09:44.206Z,993.34
2022-10-31T10:14:48.370Z,993.67
2022-10-31T10:19:52.544Z,993.88
2022-10-31T10:24:56.717Z,994.08
2022-10-31T10:29:58.986Z,994.27
2022-10-31T10:35:03.141Z,994.49
2022-10-31T10:40:07.305Z,994.63
2022-10-31T10:45:11.447Z,994.71
2022-10-31T10:50:15.604Z,995.01
2022-10-31T10:55:19.746Z,995.10
2022-10-31T11:00:23.915Z,995.05
2022-10-31T11:05:28.117Z,994.71
2022-10-31T11:10:32.236Z,994.75
2022-10-31T11:15:38.423Z,994.71
2022-10-31T11:20:40.597Z,994.92
2022-10-31T11:25:44.767Z,995.03
2022-10-31T11:30:48.903Z,994.82
2022-10-31T11:35:55.224Z,994.78
2022-10-31T11:40:57.199Z,994.95
2022-10-31T11:46:01.418Z,995.41
2022-10-31T11:51:05.521Z,995.47
2022-10-31T11:56:09.674Z,995.82
2022-10-31T12:01:13.875Z,995.98
2022-10-31T12:06:18.011Z,995.73
2022-10-31T12:11:22.150Z,995.60
2022-10-31T12:16:26.309Z,995.74
2022-10-31T12:21:30.483Z,995.66
2022-10-31T12:26:34.624Z,995.25
2022-10-31T12:31:38.816Z,995.86
2022-10-31T12:36:42.955Z,995.90
2022-10-31T12:41:47.121Z,995.98
2022-10-31T12:51:55.453Z,995.75
2022-10-31T12:56:59.554Z,995.86
2022-10-31T13:02:03.811Z,996.19
2022-10-31T13:07:07.903Z,995.91
2022-10-31T13:12:12.078Z,995.87
2022-10-31T13:17:16.234Z,995.89
2022-10-31T13:22:20.415Z,995.98
2022-10-31T13:27:24.548Z,996.38
2022-10-31T13:32:28.725Z,996.37
2022-10-31T13:37:32.879Z,996.15
2022-10-31T13:42:37.060Z,996.00
2022-10-31T13:47:41.399Z,995.99
2022-10-31T13:52:45.389Z,996.29
2022-10-31T13:57:49.491Z,995.90
2022-10-31T14:02:53.722Z,996.60
2022-10-31T14:07:58.181Z,996.35
2022-10-31T14:13:01.996Z,996.96
2022-10-31T14:18:06.117Z,997.28
2022-10-31T14:23:10.287Z,997.18
2022-10-31T14:28:14.436Z,997.28
2022-10-31T14:33:18.653Z,997.46
2022-10-31T14:38:22.788Z,997.26
2022-10-31T14:43:26.919Z,996.94
2022-10-31T14:48:31.080Z,996.32
2022-10-31T14:53:35.233Z,996.25
2022-10-31T14:58:39.405Z,996.46
2022-10-31T15:03:44.737Z,996.13
2022-10-31T15:08:47.725Z,995.72
2022-10-31T15:13:52.038Z,996.06
2022-10-31T15:18:56.050Z,996.41
2022-10-31T15:24:00.213Z,996.30
2022-10-31T15:29:04.335Z,996.36
2022-10-31T15:34:08.618Z,995.74
2022-10-31T15:39:12.715Z,995.61
2022-10-31T15:44:16.857Z,995.53
2022-10-31T15:49:21.006Z,995.34
2022-10-31T15:54:25.187Z,995.22
2022-10-31T15:59:27.419Z,995.09
2022-10-31T16:04:31.613Z,995.36
2022-10-31T16:09:35.748Z,995.33
2022-10-31T16:14:39.886Z,994.99
2022-10-31T16:19:44.062Z,994.73
2022-10-31T16:24:48.254Z,995.02
2022-10-31T16:29:50.469Z,994.83
2022-10-31T16:34:54.641Z,995.01
2022-10-31T16:39:58.810Z,995.02
2022-10-31T16:45:02.973Z,995.69
2022-10-31T16:50:07.110Z,996.02
2022-10-31T16:55:11.286Z,996.53
2022-10-31T17:00:15.445Z,996.64
2022-10-31T17:05:19.634Z,996.87
2022-10-31T17:10:23.770Z,997.02
2022-10-31T17:15:27.915Z,996.95
2022-10-31T17:20:32.102Z,997.60
2022-10-31T17:25:36.247Z,997.86
2022-10-31T17:30:40.366Z,997.65
2022-10-31T17:35:44.547Z,997.99
2022-10-31T17:45:52.930Z,998.36
2022-10-31T17:50:57.104Z,998.22
2022-10-31T17:56:01.188Z,998.46
2022-10-31T18:01:05.481Z,998.78
2022-10-31T18:06:09.526Z,998.73
2022-10-31T18:11:13.660Z,998.69
2022-10-31T18:16:17.836Z,998.45
2022-10-31T18:21:22.002Z,998.33
2022-10-31T18:26:26.182Z,998.36
2022-10-31T18:31:30.309Z,998.52
2022-10-31T18:36:34.492Z,998.48
2022-10-31T18:41:38.620Z,998.41
2022-10-31T18:46:42.802Z,998.35
2022-10-31T18:51:46.927Z,998.27
2022-10-31T18:56:51.116Z,998.38
2022-10-31T19:01:55.385Z,998.42
2022-10-31T19:06:59.456Z,998.28
2022-10-31T19:12:03.575Z,998.46
2022-10-31T19:17:07.866Z,998.38
2022-10-31T19:22:11.896Z,998.33
2022-10-31T19:27:16.075Z,998.41
2022-10-31T19:32:20.230Z,998.07
2022-10-31T19:37:24.394Z,998.10
2022-10-31T19:42:28.544Z,997.99
2022-10-31T19:47:32.698Z,997.79
2022-10-31T19:52:36.859Z,997.72
2022-10-31T19:58:11.844Z,997.72
2022-10-31T20:02:45.171Z,997.57
2022-10-31T20:07:49.351Z,997.39
2022-10-31T20:12:53.462Z,997.49
2022-10-31T20:17:57.656Z,997.54
2022-10-31T20:23:01.987Z,997.51
2022-10-31T20:28:05.980Z,997.48
2022-10-31T20:33:10.135Z,997.34
2022-10-31T20:38:14.300Z,997.29
2022-10-31T20:43:18.452Z,997.28
2022-10-31T20:48:22.641Z,997.09
2022-10-31T20:53:26.788Z,997.12
2022-10-31T20:58:30.957Z,996.96
2022-10-31T21:03:35.091Z,996.93
2022-10-31T21:08:39.273Z,996.80
2022-10-31T21:13:43.432Z,997.03
2022-10-31T21:18:47.583Z,996.72
2022-10-31T21:23:51.718Z,996.57
2022-10-31T21:28:55.915Z,996.33
2022-10-31T21:34:00.050Z,996.48
2022-10-31T21:39:04.239Z,996.47
2022-10-31T21:44:08.351Z,996.34
2022-10-31T21:49:12.527Z,996.33
2022-10-31T21:54:16.696Z,996.04
2022-10-31T21:59:18.933Z,996.03
2022-10-31T22:04:23.101Z,995.94
2022-10-31T22:09:27.271Z,996.03
2022-10-31T22:14:31.477Z,995.87
2022-10-31T22:19:35.573Z,995.76
2022-10-31T22:24:39.765Z,995.94
2022-10-31T22:29:43.944Z,995.76
2022-10-31T22:34:48.063Z,995.65
2022-10-31T22:39:52.232Z,995.67
2022-10-31T22:44:56.387Z,995.49
2022-10-31T22:50:00.577Z,995.45
2022-10-31T22:55:04.852Z,995.15
2022-10-31T23:00:08.853Z,995.21
2022-10-31T23:05:13.031Z,995.07
2022-10-31T23:10:17.212Z,995.14
2022-10-31T23:15:21.316Z,995.15
2022-10-31T23:20:25.514Z,995.24
2022-10-31T23:25:29.666Z,995.16
2022-10-31T23:30:33.829Z,995.08
2022-10-31T23:35:37.996Z,995.07
2022-10-31T23:40:42.128Z,995.28
2022-10-31T23:45:46.299Z,995.09
2022-10-31T23:50:50.484Z,995.25
2022-10-31T23:55:54.631Z,995.14
